Hauptseite
METAR-TAF:

METAR-TAF

Flughäfen :

Dublin, Irland

Flughafen Dublin

Breite: 53-26N, Länge: 006-15W, Höhe: 68 m

Beobachtung

Neuester Wetterbericht von vor 28 Minuten, um 22:00 UTC
Wind 6 kt aus Nordwest
Temperatur 15°C
Luftfeuchtigkeit 82%
Luftdruck 1017 hPa
Sichtweite 10 km oder mehr
Aufgelockert bewölkt in der Höhe von 4000 ft

METAR: EIDW 232200Z 31006KT 9999 SCT040 15/12 Q1017 NOSIG

Zeit: 23:28 (22:28 UTC)

Prognose

Neuester Wetterbericht von vor 5 Stunden und 28 Minuten, um 17:00 UTC
Gültige Prognose vom 23 um 18 UTC bis 24 um 18 UTC
Wind 7 kt aus Nord/Nordwest
Sichtweite 10 km oder mehr
Aufgelockert bewölkt in der Höhe von 2800 ft
Zeitweise
vom 24 um 04 UTC bis 24 um 06 UTC
Sichtweite: 4000 m
feuchter Dunst

TAF: EIDW 231700Z 2318/2418 34007KT 9999 SCT028 TEMPO 2404/2406 4000 BR

Wetterbeobachtungen und Prognosen von mehr als 4000 Flughäfen (METAR und TAF Bericht).

Die verfügbaren Stationen werden durch gelbe und rote Markierungen auf der Karte dargestellt.

Führen Sie die Maus auf sie, um den Namen der Station zu sehen.

Darauf klicken, um die Beobachtung von Wetterbeobachtungen und Prognosen zu sehen.

Um die Karte zu ändern : klicken Sie auf den grünen Tasten mit einem schwarzen Kreuz Zum Vergrößern, auf den grünen Button mit einem Gedankenstrich zu verkleinern, oder auf die grünen Pfeile für benachbarte Karten.


METAR-TAF: